sensor_id;sensor_type;location;lat;lon;timestamp;P1;durP1;ratioP1;P2;durP2;ratioP2
45206;SDS011;30950;53.086;21.576;2023-01-19T00:00:55;28.42;;;18.38;;
45206;SDS011;30950;53.086;21.576;2023-01-19T00:03:27;31.13;;;20.55;;
45206;SDS011;30950;53.086;21.576;2023-01-19T00:05:54;30.55;;;19.50;;
45206;SDS011;30950;53.086;21.576;2023-01-19T00:08:22;30.77;;;19.85;;
45206;SDS011;30950;53.086;21.576;2023-01-19T00:10:49;30.35;;;19.83;;
45206;SDS011;30950;53.086;21.576;2023-01-19T00:13:16;28.25;;;19.38;;
45206;SDS011;30950;53.086;21.576;2023-01-19T00:15:44;34.03;;;22.05;;
45206;SDS011;30950;53.086;21.576;2023-01-19T00:18:11;33.83;;;20.63;;
45206;SDS011;30950;53.086;21.576;2023-01-19T00:20:39;33.00;;;21.55;;
45206;SDS011;30950;53.086;21.576;2023-01-19T00:23:06;35.25;;;21.55;;
45206;SDS011;30950;53.086;21.576;2023-01-19T00:25:35;33.95;;;22.02;;
45206;SDS011;30950;53.086;21.576;2023-01-19T00:28:12;34.53;;;22.85;;
45206;SDS011;30950;53.086;21.576;2023-01-19T00:30:41;31.88;;;21.75;;
45206;SDS011;30950;53.086;21.576;2023-01-19T00:33:09;35.45;;;21.98;;
45206;SDS011;30950;53.086;21.576;2023-01-19T00:35:40;38.60;;;23.35;;
45206;SDS011;30950;53.086;21.576;2023-01-19T00:38:11;38.97;;;23.45;;
45206;SDS011;30950;53.086;21.576;2023-01-19T00:40:38;40.40;;;25.88;;
45206;SDS011;30950;53.086;21.576;2023-01-19T00:43:05;38.20;;;26.35;;
45206;SDS011;30950;53.086;21.576;2023-01-19T00:45:33;57.83;;;37.50;;
45206;SDS011;30950;53.086;21.576;2023-01-19T00:48:01;32.80;;;21.15;;
45206;SDS011;30950;53.086;21.576;2023-01-19T00:50:28;31.42;;;21.88;;
45206;SDS011;30950;53.086;21.576;2023-01-19T00:52:57;35.28;;;22.50;;
45206;SDS011;30950;53.086;21.576;2023-01-19T00:55:29;46.05;;;28.95;;
45206;SDS011;30950;53.086;21.576;2023-01-19T00:57:57;37.80;;;25.60;;
45206;SDS011;30950;53.086;21.576;2023-01-19T01:00:25;58.55;;;39.05;;
45206;SDS011;30950;53.086;21.576;2023-01-19T01:02:52;35.83;;;22.17;;
45206;SDS011;30950;53.086;21.576;2023-01-19T01:05:20;89.43;;;51.50;;
45206;SDS011;30950;53.086;21.576;2023-01-19T01:07:47;35.63;;;22.83;;
45206;SDS011;30950;53.086;21.576;2023-01-19T01:10:17;91.13;;;54.78;;
45206;SDS011;30950;53.086;21.576;2023-01-19T01:12:44;33.88;;;20.60;;
45206;SDS011;30950;53.086;21.576;2023-01-19T01:15:32;38.45;;;22.40;;
45206;SDS011;30950;53.086;21.576;2023-01-19T01:18:00;36.08;;;23.65;;
45206;SDS011;30950;53.086;21.576;2023-01-19T01:20:27;40.75;;;23.63;;
45206;SDS011;30950;53.086;21.576;2023-01-19T01:22:56;38.75;;;25.17;;
45206;SDS011;30950;53.086;21.576;2023-01-19T01:25:24;35.95;;;23.38;;
45206;SDS011;30950;53.086;21.576;2023-01-19T01:27:53;35.40;;;21.25;;
45206;SDS011;30950;53.086;21.576;2023-01-19T01:30:21;35.00;;;22.98;;
45206;SDS011;30950;53.086;21.576;2023-01-19T01:32:49;37.67;;;24.90;;
45206;SDS011;30950;53.086;21.576;2023-01-19T01:35:16;37.85;;;23.42;;
45206;SDS011;30950;53.086;21.576;2023-01-19T01:37:43;39.70;;;22.50;;
45206;SDS011;30950;53.086;21.576;2023-01-19T01:40:11;35.13;;;22.25;;
45206;SDS011;30950;53.086;21.576;2023-01-19T01:42:40;35.95;;;23.95;;
45206;SDS011;30950;53.086;21.576;2023-01-19T01:45:53;36.75;;;23.63;;
45206;SDS011;30950;53.086;21.576;2023-01-19T01:48:07;40.50;;;24.20;;
45206;SDS011;30950;53.086;21.576;2023-01-19T01:50:37;38.92;;;23.45;;
45206;SDS011;30950;53.086;21.576;2023-01-19T01:53:29;40.13;;;24.60;;
45206;SDS011;30950;53.086;21.576;2023-01-19T01:55:59;42.00;;;25.80;;
45206;SDS011;30950;53.086;21.576;2023-01-19T01:58:31;47.55;;;28.95;;
45206;SDS011;30950;53.086;21.576;2023-01-19T02:00:59;46.10;;;27.92;;
45206;SDS011;30950;53.086;21.576;2023-01-19T02:03:45;43.97;;;26.85;;
45206;SDS011;30950;53.086;21.576;2023-01-19T02:06:13;50.03;;;29.95;;
45206;SDS011;30950;53.086;21.576;2023-01-19T02:08:51;41.25;;;25.10;;
45206;SDS011;30950;53.086;21.576;2023-01-19T02:11:41;39.08;;;24.52;;
45206;SDS011;30950;53.086;21.576;2023-01-19T02:14:27;40.10;;;25.58;;
45206;SDS011;30950;53.086;21.576;2023-01-19T02:16:54;42.45;;;28.33;;
45206;SDS011;30950;53.086;21.576;2023-01-19T02:19:23;40.13;;;25.33;;
45206;SDS011;30950;53.086;21.576;2023-01-19T02:22:03;44.25;;;25.95;;
45206;SDS011;30950;53.086;21.576;2023-01-19T02:24:41;43.30;;;26.42;;
45206;SDS011;30950;53.086;21.576;2023-01-19T02:27:10;44.10;;;26.13;;
45206;SDS011;30950;53.086;21.576;2023-01-19T02:29:38;42.65;;;26.13;;
45206;SDS011;30950;53.086;21.576;2023-01-19T02:32:05;41.63;;;25.08;;
45206;SDS011;30950;53.086;21.576;2023-01-19T02:34:33;48.00;;;26.48;;
45206;SDS011;30950;53.086;21.576;2023-01-19T02:37:11;46.85;;;28.50;;
45206;SDS011;30950;53.086;21.576;2023-01-19T02:39:47;41.20;;;23.63;;
45206;SDS011;30950;53.086;21.576;2023-01-19T02:42:24;41.95;;;26.58;;
45206;SDS011;30950;53.086;21.576;2023-01-19T02:44:58;41.05;;;26.10;;
45206;SDS011;30950;53.086;21.576;2023-01-19T02:47:26;46.92;;;26.23;;
45206;SDS011;30950;53.086;21.576;2023-01-19T02:50:02;42.33;;;25.13;;
45206;SDS011;30950;53.086;21.576;2023-01-19T02:52:30;46.03;;;27.58;;
45206;SDS011;30950;53.086;21.576;2023-01-19T02:55:02;44.10;;;26.27;;
45206;SDS011;30950;53.086;21.576;2023-01-19T02:57:34;48.47;;;27.55;;
45206;SDS011;30950;53.086;21.576;2023-01-19T03:06:02;45.53;;;25.33;;
45206;SDS011;30950;53.086;21.576;2023-01-19T03:11:18;45.15;;;25.52;;
45206;SDS011;30950;53.086;21.576;2023-01-19T03:13:51;49.17;;;27.63;;
45206;SDS011;30950;53.086;21.576;2023-01-19T03:16:38;45.67;;;26.13;;
45206;SDS011;30950;53.086;21.576;2023-01-19T03:19:22;34.58;;;19.27;;
45206;SDS011;30950;53.086;21.576;2023-01-19T03:21:59;51.80;;;28.13;;
45206;SDS011;30950;53.086;21.576;2023-01-19T03:24:37;49.33;;;27.27;;
45206;SDS011;30950;53.086;21.576;2023-01-19T03:27:09;44.70;;;22.58;;
45206;SDS011;30950;53.086;21.576;2023-01-19T03:29:41;53.45;;;28.17;;
45206;SDS011;30950;53.086;21.576;2023-01-19T03:32:16;48.42;;;27.70;;
45206;SDS011;30950;53.086;21.576;2023-01-19T03:34:47;48.53;;;25.75;;
45206;SDS011;30950;53.086;21.576;2023-01-19T03:37:17;47.75;;;25.42;;
45206;SDS011;30950;53.086;21.576;2023-01-19T03:39:47;49.53;;;26.42;;
45206;SDS011;30950;53.086;21.576;2023-01-19T03:42:14;51.58;;;28.92;;
45206;SDS011;30950;53.086;21.576;2023-01-19T03:44:42;53.55;;;28.60;;
45206;SDS011;30950;53.086;21.576;2023-01-19T03:47:11;51.42;;;25.60;;
45206;SDS011;30950;53.086;21.576;2023-01-19T03:49:40;54.47;;;27.30;;
45206;SDS011;30950;53.086;21.576;2023-01-19T03:52:10;51.20;;;26.45;;
45206;SDS011;30950;53.086;21.576;2023-01-19T03:54:38;54.40;;;27.38;;
45206;SDS011;30950;53.086;21.576;2023-01-19T03:57:06;52.92;;;28.17;;
45206;SDS011;30950;53.086;21.576;2023-01-19T03:59:34;47.38;;;24.98;;
45206;SDS011;30950;53.086;21.576;2023-01-19T04:02:01;56.47;;;26.25;;
45206;SDS011;30950;53.086;21.576;2023-01-19T04:04:29;52.35;;;26.17;;
45206;SDS011;30950;53.086;21.576;2023-01-19T04:06:56;50.92;;;27.08;;
45206;SDS011;30950;53.086;21.576;2023-01-19T04:09:23;52.13;;;26.33;;
45206;SDS011;30950;53.086;21.576;2023-01-19T04:11:51;51.17;;;25.58;;
45206;SDS011;30950;53.086;21.576;2023-01-19T04:14:18;51.03;;;26.52;;
45206;SDS011;30950;53.086;21.576;2023-01-19T04:16:45;54.15;;;27.17;;
45206;SDS011;30950;53.086;21.576;2023-01-19T04:19:13;56.10;;;28.08;;
45206;SDS011;30950;53.086;21.576;2023-01-19T04:21:40;52.20;;;26.67;;
45206;SDS011;30950;53.086;21.576;2023-01-19T04:24:08;58.03;;;27.17;;
45206;SDS011;30950;53.086;21.576;2023-01-19T04:26:36;55.15;;;28.02;;
45206;SDS011;30950;53.086;21.576;2023-01-19T04:29:03;49.55;;;26.15;;
45206;SDS011;30950;53.086;21.576;2023-01-19T04:31:30;52.45;;;28.15;;
45206;SDS011;30950;53.086;21.576;2023-01-19T04:33:58;52.10;;;26.67;;
45206;SDS011;30950;53.086;21.576;2023-01-19T04:36:25;55.60;;;25.58;;
45206;SDS011;30950;53.086;21.576;2023-01-19T04:38:54;48.78;;;26.55;;
45206;SDS011;30950;53.086;21.576;2023-01-19T04:41:21;55.33;;;30.02;;
45206;SDS011;30950;53.086;21.576;2023-01-19T04:43:49;48.83;;;26.10;;
45206;SDS011;30950;53.086;21.576;2023-01-19T04:46:16;50.15;;;24.15;;
45206;SDS011;30950;53.086;21.576;2023-01-19T04:48:44;46.90;;;25.33;;
45206;SDS011;30950;53.086;21.576;2023-01-19T04:51:11;51.17;;;25.25;;
45206;SDS011;30950;53.086;21.576;2023-01-19T04:53:38;45.53;;;24.75;;
45206;SDS011;30950;53.086;21.576;2023-01-19T04:56:05;46.50;;;24.25;;
45206;SDS011;30950;53.086;21.576;2023-01-19T04:58:33;45.50;;;24.35;;
45206;SDS011;30950;53.086;21.576;2023-01-19T05:01:00;42.72;;;24.25;;
45206;SDS011;30950;53.086;21.576;2023-01-19T05:03:27;48.45;;;25.10;;
45206;SDS011;30950;53.086;21.576;2023-01-19T05:05:55;49.17;;;25.98;;
45206;SDS011;30950;53.086;21.576;2023-01-19T05:08:22;42.13;;;23.25;;
45206;SDS011;30950;53.086;21.576;2023-01-19T05:10:50;49.95;;;25.85;;
45206;SDS011;30950;53.086;21.576;2023-01-19T05:13:17;52.58;;;25.88;;
45206;SDS011;30950;53.086;21.576;2023-01-19T05:15:45;52.83;;;26.63;;
45206;SDS011;30950;53.086;21.576;2023-01-19T05:18:12;49.03;;;25.45;;
45206;SDS011;30950;53.086;21.576;2023-01-19T05:20:39;47.53;;;24.35;;
45206;SDS011;30950;53.086;21.576;2023-01-19T05:23:06;46.35;;;24.80;;
45206;SDS011;30950;53.086;21.576;2023-01-19T05:25:34;54.30;;;25.08;;
45206;SDS011;30950;53.086;21.576;2023-01-19T05:28:01;55.80;;;28.40;;
45206;SDS011;30950;53.086;21.576;2023-01-19T05:30:29;58.53;;;27.92;;
45206;SDS011;30950;53.086;21.576;2023-01-19T05:32:57;60.13;;;26.38;;
45206;SDS011;30950;53.086;21.576;2023-01-19T05:35:24;64.53;;;28.58;;
45206;SDS011;30950;53.086;21.576;2023-01-19T05:38:01;64.47;;;29.40;;
45206;SDS011;30950;53.086;21.576;2023-01-19T05:40:29;66.60;;;29.52;;
45206;SDS011;30950;53.086;21.576;2023-01-19T05:42:57;69.47;;;30.80;;
45206;SDS011;30950;53.086;21.576;2023-01-19T05:45:27;75.82;;;30.15;;
45206;SDS011;30950;53.086;21.576;2023-01-19T05:47:55;69.28;;;30.30;;
45206;SDS011;30950;53.086;21.576;2023-01-19T05:50:22;73.63;;;30.70;;
45206;SDS011;30950;53.086;21.576;2023-01-19T05:52:50;68.10;;;28.58;;
45206;SDS011;30950;53.086;21.576;2023-01-19T05:55:20;63.45;;;28.15;;
45206;SDS011;30950;53.086;21.576;2023-01-19T05:57:48;66.03;;;30.85;;
45206;SDS011;30950;53.086;21.576;2023-01-19T06:00:15;66.57;;;31.27;;
45206;SDS011;30950;53.086;21.576;2023-01-19T06:02:43;68.25;;;30.90;;
45206;SDS011;30950;53.086;21.576;2023-01-19T06:05:12;63.08;;;28.00;;
45206;SDS011;30950;53.086;21.576;2023-01-19T06:07:39;68.60;;;29.48;;
45206;SDS011;30950;53.086;21.576;2023-01-19T06:10:07;68.63;;;29.20;;
45206;SDS011;30950;53.086;21.576;2023-01-19T06:12:35;62.30;;;29.35;;
45206;SDS011;30950;53.086;21.576;2023-01-19T06:15:04;61.45;;;26.83;;
45206;SDS011;30950;53.086;21.576;2023-01-19T06:17:32;59.45;;;27.15;;
45206;SDS011;30950;53.086;21.576;2023-01-19T06:19:59;59.38;;;28.15;;
45206;SDS011;30950;53.086;21.576;2023-01-19T06:22:27;49.53;;;25.08;;
45206;SDS011;30950;53.086;21.576;2023-01-19T06:24:54;52.13;;;24.05;;
45206;SDS011;30950;53.086;21.576;2023-01-19T06:27:21;50.13;;;25.10;;
45206;SDS011;30950;53.086;21.576;2023-01-19T06:29:48;53.95;;;27.20;;
45206;SDS011;30950;53.086;21.576;2023-01-19T06:32:16;48.00;;;26.02;;
45206;SDS011;30950;53.086;21.576;2023-01-19T06:34:46;47.20;;;23.67;;
45206;SDS011;30950;53.086;21.576;2023-01-19T06:37:13;40.35;;;20.38;;
45206;SDS011;30950;53.086;21.576;2023-01-19T06:39:42;48.50;;;22.65;;
45206;SDS011;30950;53.086;21.576;2023-01-19T06:42:11;38.33;;;21.63;;
45206;SDS011;30950;53.086;21.576;2023-01-19T06:44:38;40.00;;;21.70;;
45206;SDS011;30950;53.086;21.576;2023-01-19T06:47:13;41.45;;;20.80;;
45206;SDS011;30950;53.086;21.576;2023-01-19T06:49:42;46.17;;;24.33;;
45206;SDS011;30950;53.086;21.576;2023-01-19T06:52:12;52.08;;;26.10;;
45206;SDS011;30950;53.086;21.576;2023-01-19T06:54:42;46.00;;;23.77;;
45206;SDS011;30950;53.086;21.576;2023-01-19T06:57:12;45.80;;;22.63;;
45206;SDS011;30950;53.086;21.576;2023-01-19T06:59:40;50.60;;;25.15;;
45206;SDS011;30950;53.086;21.576;2023-01-19T07:02:08;52.88;;;26.83;;
45206;SDS011;30950;53.086;21.576;2023-01-19T07:04:53;47.20;;;23.30;;
45206;SDS011;30950;53.086;21.576;2023-01-19T07:07:22;47.42;;;23.88;;
45206;SDS011;30950;53.086;21.576;2023-01-19T07:09:49;39.65;;;21.23;;
45206;SDS011;30950;53.086;21.576;2023-01-19T07:12:20;46.90;;;21.88;;
45206;SDS011;30950;53.086;21.576;2023-01-19T07:14:48;44.75;;;23.05;;
45206;SDS011;30950;53.086;21.576;2023-01-19T07:17:15;43.83;;;23.88;;
45206;SDS011;30950;53.086;21.576;2023-01-19T07:19:43;45.78;;;21.92;;
45206;SDS011;30950;53.086;21.576;2023-01-19T07:22:12;41.90;;;22.20;;
45206;SDS011;30950;53.086;21.576;2023-01-19T07:24:39;45.83;;;23.17;;
45206;SDS011;30950;53.086;21.576;2023-01-19T07:27:07;43.35;;;23.85;;
45206;SDS011;30950;53.086;21.576;2023-01-19T07:29:34;48.05;;;23.80;;
45206;SDS011;30950;53.086;21.576;2023-01-19T07:32:01;43.72;;;23.83;;
45206;SDS011;30950;53.086;21.576;2023-01-19T07:34:28;45.30;;;24.55;;
45206;SDS011;30950;53.086;21.576;2023-01-19T07:36:56;52.13;;;26.55;;
45206;SDS011;30950;53.086;21.576;2023-01-19T07:39:24;53.88;;;25.70;;
45206;SDS011;30950;53.086;21.576;2023-01-19T07:41:51;52.63;;;25.27;;
45206;SDS011;30950;53.086;21.576;2023-01-19T07:44:20;55.00;;;28.05;;
45206;SDS011;30950;53.086;21.576;2023-01-19T07:46:48;56.10;;;27.60;;
45206;SDS011;30950;53.086;21.576;2023-01-19T07:49:16;58.58;;;28.48;;
45206;SDS011;30950;53.086;21.576;2023-01-19T07:51:44;57.90;;;29.27;;
45206;SDS011;30950;53.086;21.576;2023-01-19T07:54:11;55.05;;;27.05;;
45206;SDS011;30950;53.086;21.576;2023-01-19T07:56:38;57.63;;;28.65;;
45206;SDS011;30950;53.086;21.576;2023-01-19T07:59:05;61.85;;;30.02;;
45206;SDS011;30950;53.086;21.576;2023-01-19T08:01:35;57.70;;;28.52;;
45206;SDS011;30950;53.086;21.576;2023-01-19T08:04:03;55.28;;;26.90;;
45206;SDS011;30950;53.086;21.576;2023-01-19T08:06:32;60.03;;;32.10;;
45206;SDS011;30950;53.086;21.576;2023-01-19T08:09:01;59.38;;;30.80;;
45206;SDS011;30950;53.086;21.576;2023-01-19T08:11:31;59.90;;;28.45;;
45206;SDS011;30950;53.086;21.576;2023-01-19T08:13:59;58.80;;;28.52;;
45206;SDS011;30950;53.086;21.576;2023-01-19T08:16:26;63.00;;;32.28;;
45206;SDS011;30950;53.086;21.576;2023-01-19T08:18:53;53.10;;;26.40;;
45206;SDS011;30950;53.086;21.576;2023-01-19T08:21:21;55.50;;;27.98;;
45206;SDS011;30950;53.086;21.576;2023-01-19T08:23:52;51.88;;;25.30;;
45206;SDS011;30950;53.086;21.576;2023-01-19T08:26:27;49.35;;;24.70;;
45206;SDS011;30950;53.086;21.576;2023-01-19T08:28:59;51.97;;;23.05;;
45206;SDS011;30950;53.086;21.576;2023-01-19T08:31:28;46.15;;;25.23;;
45206;SDS011;30950;53.086;21.576;2023-01-19T08:33:57;43.75;;;23.92;;
45206;SDS011;30950;53.086;21.576;2023-01-19T08:36:24;46.47;;;25.08;;
45206;SDS011;30950;53.086;21.576;2023-01-19T08:38:52;40.97;;;21.77;;
45206;SDS011;30950;53.086;21.576;2023-01-19T08:41:19;46.08;;;23.23;;
45206;SDS011;30950;53.086;21.576;2023-01-19T08:43:47;42.53;;;22.33;;
45206;SDS011;30950;53.086;21.576;2023-01-19T08:46:15;41.53;;;23.40;;
45206;SDS011;30950;53.086;21.576;2023-01-19T08:48:46;46.60;;;22.38;;
45206;SDS011;30950;53.086;21.576;2023-01-19T08:51:16;47.42;;;22.92;;
45206;SDS011;30950;53.086;21.576;2023-01-19T08:53:43;42.45;;;22.58;;
45206;SDS011;30950;53.086;21.576;2023-01-19T08:56:11;49.55;;;25.35;;
45206;SDS011;30950;53.086;21.576;2023-01-19T08:58:40;48.22;;;24.20;;
45206;SDS011;30950;53.086;21.576;2023-01-19T09:01:11;46.65;;;23.95;;
45206;SDS011;30950;53.086;21.576;2023-01-19T09:03:46;44.78;;;21.77;;
45206;SDS011;30950;53.086;21.576;2023-01-19T09:06:14;44.42;;;22.88;;
45206;SDS011;30950;53.086;21.576;2023-01-19T09:08:45;42.78;;;24.02;;
45206;SDS011;30950;53.086;21.576;2023-01-19T09:11:14;41.90;;;21.23;;
45206;SDS011;30950;53.086;21.576;2023-01-19T09:13:42;45.35;;;24.10;;
45206;SDS011;30950;53.086;21.576;2023-01-19T09:16:10;44.00;;;23.33;;
45206;SDS011;30950;53.086;21.576;2023-01-19T09:18:38;41.05;;;22.98;;
45206;SDS011;30950;53.086;21.576;2023-01-19T09:21:06;43.83;;;23.98;;
45206;SDS011;30950;53.086;21.576;2023-01-19T09:23:34;42.42;;;23.50;;
45206;SDS011;30950;53.086;21.576;2023-01-19T09:26:03;42.40;;;21.17;;
45206;SDS011;30950;53.086;21.576;2023-01-19T09:28:31;45.20;;;22.25;;
45206;SDS011;30950;53.086;21.576;2023-01-19T09:31:03;41.92;;;22.92;;
45206;SDS011;30950;53.086;21.576;2023-01-19T09:33:33;43.25;;;23.30;;
45206;SDS011;30950;53.086;21.576;2023-01-19T09:36:01;48.78;;;26.13;;
45206;SDS011;30950;53.086;21.576;2023-01-19T09:38:28;50.05;;;24.73;;
45206;SDS011;30950;53.086;21.576;2023-01-19T09:40:59;43.08;;;23.85;;
45206;SDS011;30950;53.086;21.576;2023-01-19T09:43:34;46.67;;;24.77;;
45206;SDS011;30950;53.086;21.576;2023-01-19T09:46:12;47.30;;;25.00;;
45206;SDS011;30950;53.086;21.576;2023-01-19T09:51:23;46.50;;;24.30;;
45206;SDS011;30950;53.086;21.576;2023-01-19T09:53:56;47.95;;;25.40;;
45206;SDS011;30950;53.086;21.576;2023-01-19T09:56:30;56.85;;;29.35;;
45206;SDS011;30950;53.086;21.576;2023-01-19T09:58:58;70.05;;;36.08;;
45206;SDS011;30950;53.086;21.576;2023-01-19T10:07:39;57.88;;;27.90;;
45206;SDS011;30950;53.086;21.576;2023-01-19T10:20:22;50.10;;;27.33;;
45206;SDS011;30950;53.086;21.576;2023-01-19T10:22:54;52.67;;;25.80;;
45206;SDS011;30950;53.086;21.576;2023-01-19T10:25:23;52.83;;;28.60;;
45206;SDS011;30950;53.086;21.576;2023-01-19T10:27:51;52.67;;;26.83;;
45206;SDS011;30950;53.086;21.576;2023-01-19T10:30:25;54.78;;;27.65;;
45206;SDS011;30950;53.086;21.576;2023-01-19T10:32:54;55.17;;;26.90;;
45206;SDS011;30950;53.086;21.576;2023-01-19T10:35:23;48.25;;;25.70;;
45206;SDS011;30950;53.086;21.576;2023-01-19T10:37:52;49.78;;;25.23;;
45206;SDS011;30950;53.086;21.576;2023-01-19T10:40:25;43.75;;;23.42;;
45206;SDS011;30950;53.086;21.576;2023-01-19T10:42:55;39.88;;;23.25;;
45206;SDS011;30950;53.086;21.576;2023-01-19T10:45:24;42.67;;;25.00;;
45206;SDS011;30950;53.086;21.576;2023-01-19T10:47:57;43.67;;;24.30;;
45206;SDS011;30950;53.086;21.576;2023-01-19T10:50:31;44.80;;;24.35;;
45206;SDS011;30950;53.086;21.576;2023-01-19T10:53:03;43.22;;;24.50;;
45206;SDS011;30950;53.086;21.576;2023-01-19T10:55:36;38.45;;;22.67;;
45206;SDS011;30950;53.086;21.576;2023-01-19T10:58:07;41.15;;;23.33;;
45206;SDS011;30950;53.086;21.576;2023-01-19T11:00:55;42.83;;;23.45;;
45206;SDS011;30950;53.086;21.576;2023-01-19T11:03:49;44.50;;;24.33;;
45206;SDS011;30950;53.086;21.576;2023-01-19T11:06:23;47.05;;;25.00;;
45206;SDS011;30950;53.086;21.576;2023-01-19T11:09:16;44.88;;;25.08;;
45206;SDS011;30950;53.086;21.576;2023-01-19T11:11:46;42.60;;;22.75;;
45206;SDS011;30950;53.086;21.576;2023-01-19T11:14:19;41.80;;;21.60;;
45206;SDS011;30950;53.086;21.576;2023-01-19T11:16:49;46.92;;;25.65;;
45206;SDS011;30950;53.086;21.576;2023-01-19T11:19:23;50.45;;;27.33;;
45206;SDS011;30950;53.086;21.576;2023-01-19T11:24:59;46.13;;;23.70;;
45206;SDS011;30950;53.086;21.576;2023-01-19T11:27:29;40.72;;;23.98;;
45206;SDS011;30950;53.086;21.576;2023-01-19T11:30:12;37.22;;;22.88;;
45206;SDS011;30950;53.086;21.576;2023-01-19T11:32:49;40.78;;;22.83;;
45206;SDS011;30950;53.086;21.576;2023-01-19T11:35:28;40.75;;;24.90;;
45206;SDS011;30950;53.086;21.576;2023-01-19T11:40:38;36.53;;;21.10;;
45206;SDS011;30950;53.086;21.576;2023-01-19T11:43:11;36.50;;;22.17;;
45206;SDS011;30950;53.086;21.576;2023-01-19T11:45:39;39.35;;;23.83;;
45206;SDS011;30950;53.086;21.576;2023-01-19T11:48:09;37.40;;;22.70;;
45206;SDS011;30950;53.086;21.576;2023-01-19T11:50:48;36.03;;;21.13;;
45206;SDS011;30950;53.086;21.576;2023-01-19T11:55:57;36.08;;;22.48;;
45206;SDS011;30950;53.086;21.576;2023-01-19T11:58:30;39.53;;;22.08;;
45206;SDS011;30950;53.086;21.576;2023-01-19T12:01:04;37.10;;;21.52;;
45206;SDS011;30950;53.086;21.576;2023-01-19T12:04:00;37.25;;;22.23;;
45206;SDS011;30950;53.086;21.576;2023-01-19T12:06:34;37.47;;;22.73;;
45206;SDS011;30950;53.086;21.576;2023-01-19T12:09:39;37.60;;;21.55;;
45206;SDS011;30950;53.086;21.576;2023-01-19T12:14:59;42.85;;;23.95;;
45206;SDS011;30950;53.086;21.576;2023-01-19T12:17:32;39.17;;;21.77;;
45206;SDS011;30950;53.086;21.576;2023-01-19T12:22:58;39.60;;;24.13;;
45206;SDS011;30950;53.086;21.576;2023-01-19T12:28:30;39.58;;;22.15;;
45206;SDS011;30950;53.086;21.576;2023-01-19T12:30:59;41.90;;;23.85;;
45206;SDS011;30950;53.086;21.576;2023-01-19T12:35:58;40.47;;;22.05;;
45206;SDS011;30950;53.086;21.576;2023-01-19T12:38:39;38.67;;;22.52;;
45206;SDS011;30950;53.086;21.576;2023-01-19T12:41:19;40.78;;;22.30;;
45206;SDS011;30950;53.086;21.576;2023-01-19T12:43:47;39.75;;;21.15;;
45206;SDS011;30950;53.086;21.576;2023-01-19T12:46:34;40.28;;;22.33;;
45206;SDS011;30950;53.086;21.576;2023-01-19T12:51:53;38.45;;;21.27;;
45206;SDS011;30950;53.086;21.576;2023-01-19T12:54:49;44.50;;;24.20;;
45206;SDS011;30950;53.086;21.576;2023-01-19T13:02:52;47.33;;;27.00;;
45206;SDS011;30950;53.086;21.576;2023-01-19T13:24:11;47.28;;;26.15;;
45206;SDS011;30950;53.086;21.576;2023-01-19T13:29:22;44.67;;;25.98;;
45206;SDS011;30950;53.086;21.576;2023-01-19T13:31:59;52.25;;;27.55;;
45206;SDS011;30950;53.086;21.576;2023-01-19T13:34:30;63.28;;;33.88;;
45206;SDS011;30950;53.086;21.576;2023-01-19T13:37:14;55.70;;;29.60;;
45206;SDS011;30950;53.086;21.576;2023-01-19T13:39:47;49.13;;;27.65;;
45206;SDS011;30950;53.086;21.576;2023-01-19T13:44:51;47.25;;;26.50;;
45206;SDS011;30950;53.086;21.576;2023-01-19T13:47:21;40.97;;;24.90;;
45206;SDS011;30950;53.086;21.576;2023-01-19T13:50:02;43.95;;;24.23;;
45206;SDS011;30950;53.086;21.576;2023-01-19T13:52:30;44.88;;;26.10;;
45206;SDS011;30950;53.086;21.576;2023-01-19T13:55:01;50.92;;;29.15;;
45206;SDS011;30950;53.086;21.576;2023-01-19T13:57:38;52.30;;;30.90;;
45206;SDS011;30950;53.086;21.576;2023-01-19T14:00:14;57.85;;;33.92;;
45206;SDS011;30950;53.086;21.576;2023-01-19T14:05:33;59.05;;;29.73;;
45206;SDS011;30950;53.086;21.576;2023-01-19T14:10:39;43.75;;;25.58;;
45206;SDS011;30950;53.086;21.576;2023-01-19T14:15:43;41.35;;;23.58;;
45206;SDS011;30950;53.086;21.576;2023-01-19T14:20:39;47.50;;;25.55;;
45206;SDS011;30950;53.086;21.576;2023-01-19T14:23:28;41.70;;;23.08;;
45206;SDS011;30950;53.086;21.576;2023-01-19T14:26:03;48.83;;;26.65;;
45206;SDS011;30950;53.086;21.576;2023-01-19T14:28:32;46.08;;;26.63;;
45206;SDS011;30950;53.086;21.576;2023-01-19T14:31:03;53.65;;;27.65;;
45206;SDS011;30950;53.086;21.576;2023-01-19T14:33:45;42.65;;;25.27;;
45206;SDS011;30950;53.086;21.576;2023-01-19T14:38:46;44.45;;;24.02;;
45206;SDS011;30950;53.086;21.576;2023-01-19T14:47:04;56.25;;;30.02;;
45206;SDS011;30950;53.086;21.576;2023-01-19T14:49:45;79.82;;;36.65;;
45206;SDS011;30950;53.086;21.576;2023-01-19T14:54:48;72.80;;;36.85;;
45206;SDS011;30950;53.086;21.576;2023-01-19T14:57:16;62.20;;;31.60;;
45206;SDS011;30950;53.086;21.576;2023-01-19T14:59:43;53.30;;;29.20;;
45206;SDS011;30950;53.086;21.576;2023-01-19T15:02:18;50.92;;;25.85;;
45206;SDS011;30950;53.086;21.576;2023-01-19T15:04:45;45.50;;;25.40;;
45206;SDS011;30950;53.086;21.576;2023-01-19T15:07:17;48.22;;;26.23;;
45206;SDS011;30950;53.086;21.576;2023-01-19T15:09:45;40.60;;;22.38;;
45206;SDS011;30950;53.086;21.576;2023-01-19T15:12:14;41.47;;;21.13;;
45206;SDS011;30950;53.086;21.576;2023-01-19T15:14:43;41.20;;;23.50;;
45206;SDS011;30950;53.086;21.576;2023-01-19T15:17:14;43.45;;;22.73;;
45206;SDS011;30950;53.086;21.576;2023-01-19T15:19:51;42.10;;;23.15;;
45206;SDS011;30950;53.086;21.576;2023-01-19T15:22:24;62.63;;;35.50;;
45206;SDS011;30950;53.086;21.576;2023-01-19T15:24:53;63.08;;;35.25;;
45206;SDS011;30950;53.086;21.576;2023-01-19T15:27:23;55.00;;;32.63;;
45206;SDS011;30950;53.086;21.576;2023-01-19T15:29:51;47.30;;;28.92;;
45206;SDS011;30950;53.086;21.576;2023-01-19T15:32:19;54.17;;;31.27;;
45206;SDS011;30950;53.086;21.576;2023-01-19T15:34:47;56.30;;;33.42;;
45206;SDS011;30950;53.086;21.576;2023-01-19T15:37:14;63.47;;;37.40;;
45206;SDS011;30950;53.086;21.576;2023-01-19T15:39:41;56.00;;;31.58;;
45206;SDS011;30950;53.086;21.576;2023-01-19T15:42:09;50.67;;;30.88;;
45206;SDS011;30950;53.086;21.576;2023-01-19T15:44:39;51.92;;;28.63;;
45206;SDS011;30950;53.086;21.576;2023-01-19T15:47:08;55.45;;;30.90;;
45206;SDS011;30950;53.086;21.576;2023-01-19T15:49:36;64.03;;;35.30;;
45206;SDS011;30950;53.086;21.576;2023-01-19T15:52:07;56.75;;;30.50;;
45206;SDS011;30950;53.086;21.576;2023-01-19T15:54:37;59.65;;;32.35;;
45206;SDS011;30950;53.086;21.576;2023-01-19T15:57:04;62.40;;;33.20;;
45206;SDS011;30950;53.086;21.576;2023-01-19T15:59:31;61.97;;;32.85;;
45206;SDS011;30950;53.086;21.576;2023-01-19T16:01:58;64.38;;;36.15;;
45206;SDS011;30950;53.086;21.576;2023-01-19T16:04:26;63.67;;;33.60;;
45206;SDS011;30950;53.086;21.576;2023-01-19T16:06:53;60.15;;;33.25;;
45206;SDS011;30950;53.086;21.576;2023-01-19T16:09:20;58.75;;;31.10;;